CCM78JG LFPO-LFKJ
Flight info
| Callsign | CCM78JG |
|---|---|
| Flight time | 1h 26m |
| Altitude | 35000 |
| Route | LATRA DCT LAMUT DCT UTUVA DCT TITVA DCT NOQAS DCT KOLON DCT OMARD M623 VAREK |
| Aircraft | A320/M-SDE2E3FGIJ1RWY/HB1 |
Departure
| Time | 2026-04-23 18:12 |
|---|---|
| Airport | Paris-Orly Airport (LFPO) |
Arrival
| Time | 2026-04-23 19:38 |
|---|---|
| Airport | Ajaccio Napoléon Bonaparte airport (LFKJ) |
| Time | Latitude | Longitude | Altitude | Speed | Heading |
|---|---|---|---|---|---|
| 2026-04-23 17:39 | 48.72749 | 2.35788 | 296 ft | 0 kts | 173° |
| 2026-04-23 18:00 | 48.72757 | 2.35786 | 292 ft | 4 kts | 173° |
| 2026-04-23 18:01 | 48.72779 | 2.35782 | 294 ft | 4 kts | 155° |
| 2026-04-23 18:01 | 48.72791 | 2.35758 | 298 ft | 4 kts | 85° |
| 2026-04-23 18:01 | 48.72787 | 2.35724 | 297 ft | 4 kts | 74° |
| 2026-04-23 18:01 | 48.72779 | 2.35685 | 299 ft | 4 kts | 75° |
| 2026-04-23 18:02 | 48.72775 | 2.35659 | 298 ft | 4 kts | 88° |
| 2026-04-23 18:02 | 48.72784 | 2.35611 | 298 ft | 4 kts | 122° |
| 2026-04-23 18:02 | 48.72801 | 2.35583 | 298 ft | 4 kts | 156° |
| 2026-04-23 18:02 | 48.72823 | 2.35573 | 296 ft | 3 kts | 164° |
| 2026-04-23 18:03 | 48.72826 | 2.35571 | 295 ft | 0 kts | 164° |
| 2026-04-23 18:05 | 48.72807 | 2.35579 | 296 ft | 8 kts | 165° |
| 2026-04-23 18:05 | 48.72724 | 2.35614 | 294 ft | 13 kts | 163° |
| 2026-04-23 18:05 | 48.72639 | 2.35650 | 294 ft | 12 kts | 165° |
| 2026-04-23 18:06 | 48.72560 | 2.35683 | 295 ft | 11 kts | 165° |
| 2026-04-23 18:06 | 48.72494 | 2.35729 | 295 ft | 10 kts | 133° |
| 2026-04-23 18:06 | 48.72477 | 2.35830 | 294 ft | 10 kts | 96° |
| 2026-04-23 18:06 | 48.72470 | 2.35938 | 292 ft | 11 kts | 94° |
| 2026-04-23 18:07 | 48.72474 | 2.36051 | 294 ft | 11 kts | 78° |
| 2026-04-23 18:07 | 48.72489 | 2.36167 | 298 ft | 11 kts | 93° |
| 2026-04-23 18:07 | 48.72434 | 2.36240 | 294 ft | 11 kts | 166° |
| 2026-04-23 18:07 | 48.72363 | 2.36271 | 294 ft | 10 kts | 161° |
| 2026-04-23 18:08 | 48.72319 | 2.36296 | 296 ft | 9 kts | 155° |
| 2026-04-23 18:08 | 48.72260 | 2.36372 | 294 ft | 8 kts | 128° |
| 2026-04-23 18:08 | 48.72229 | 2.36442 | 296 ft | 8 kts | 122° |
| 2026-04-23 18:08 | 48.72200 | 2.36510 | 293 ft | 8 kts | 134° |
| 2026-04-23 18:09 | 48.72170 | 2.36535 | 298 ft | 0 kts | 161° |
| 2026-04-23 18:10 | 48.72131 | 2.36557 | 296 ft | 10 kts | 158° |
| 2026-04-23 18:10 | 48.72088 | 2.36610 | 296 ft | 7 kts | 115° |
| 2026-04-23 18:10 | 48.72094 | 2.36680 | 297 ft | 0 kts | 73° |
| 2026-04-23 18:11 | 48.72161 | 2.37046 | 293 ft | 75 kts | 74° |
| 2026-04-23 18:11 | 48.72360 | 2.38119 | 300 ft | 134 kts | 75° |
| 2026-04-23 18:11 | 48.72629 | 2.39602 | 689 ft | 150 kts | 73° |
| 2026-04-23 18:12 | 48.72922 | 2.41204 | 1149 ft | 169 kts | 75° |
| 2026-04-23 18:12 | 48.73261 | 2.43038 | 1520 ft | 194 kts | 74° |
| 2026-04-23 18:12 | 48.73645 | 2.45121 | 1997 ft | 218 kts | 75° |
| 2026-04-23 18:12 | 48.74028 | 2.47454 | 2571 ft | 236 kts | 79° |
| 2026-04-23 18:13 | 48.74209 | 2.49968 | 3450 ft | 243 kts | 85° |
| 2026-04-23 18:13 | 48.74303 | 2.52545 | 4383 ft | 248 kts | 88° |
| 2026-04-23 18:13 | 48.74366 | 2.55181 | 5264 ft | 253 kts | 91° |
| 2026-04-23 18:13 | 48.73925 | 2.57750 | 6077 ft | 259 kts | 123° |
| 2026-04-23 18:14 | 48.73097 | 2.59044 | 6660 ft | 263 kts | 144° |
| 2026-04-23 18:14 | 48.70841 | 2.60464 | 7838 ft | 269 kts | 162° |
| 2026-04-23 18:14 | 48.69010 | 2.61118 | 8710 ft | 273 kts | 166° |
| 2026-04-23 18:14 | 48.67139 | 2.61744 | 9539 ft | 278 kts | 165° |
| 2026-04-23 18:15 | 48.65209 | 2.62113 | 10356 ft | 284 kts | 179° |
| 2026-04-23 18:15 | 48.63232 | 2.61710 | 11113 ft | 291 kts | 192° |
| 2026-04-23 18:15 | 48.61288 | 2.60570 | 11543 ft | 312 kts | 204° |
| 2026-04-23 18:15 | 48.59285 | 2.59040 | 11857 ft | 332 kts | 204° |
| 2026-04-23 18:16 | 48.57200 | 2.57434 | 12495 ft | 339 kts | 204° |
| 2026-04-23 18:16 | 48.55089 | 2.55798 | 13230 ft | 343 kts | 204° |
| 2026-04-23 18:16 | 48.52950 | 2.54138 | 13958 ft | 348 kts | 204° |
| 2026-04-23 18:17 | 48.48606 | 2.50780 | 15293 ft | 354 kts | 204° |
| 2026-04-23 18:17 | 48.46402 | 2.49115 | 15977 ft | 355 kts | 200° |
| 2026-04-23 18:17 | 48.44072 | 2.47895 | 16646 ft | 355 kts | 193° |
| 2026-04-23 18:17 | 48.41700 | 2.46823 | 17326 ft | 357 kts | 193° |
| 2026-04-23 18:18 | 48.39315 | 2.45744 | 18028 ft | 359 kts | 193° |
| 2026-04-23 18:18 | 48.36936 | 2.44668 | 18670 ft | 361 kts | 193° |
| 2026-04-23 18:18 | 48.34502 | 2.43566 | 19241 ft | 364 kts | 193° |
| 2026-04-23 18:18 | 48.32065 | 2.42484 | 19792 ft | 366 kts | 190° |
| 2026-04-23 18:19 | 48.29557 | 2.41911 | 20348 ft | 364 kts | 179° |
| 2026-04-23 18:19 | 48.27038 | 2.42095 | 20900 ft | 363 kts | 168° |
| 2026-04-23 18:19 | 48.24600 | 2.43017 | 21457 ft | 362 kts | 158° |
| 2026-04-23 18:19 | 48.22217 | 2.44297 | 22019 ft | 365 kts | 158° |
| 2026-04-23 18:20 | 48.19819 | 2.45583 | 22571 ft | 368 kts | 158° |
| 2026-04-23 18:20 | 48.17400 | 2.46876 | 23137 ft | 370 kts | 158° |
| 2026-04-23 18:20 | 48.15787 | 2.47734 | 23497 ft | 372 kts | 158° |
| 2026-04-23 18:20 | 48.13335 | 2.49035 | 23988 ft | 375 kts | 158° |
| 2026-04-23 18:21 | 48.10866 | 2.50339 | 24431 ft | 377 kts | 158° |
| 2026-04-23 18:21 | 48.08380 | 2.51649 | 24878 ft | 379 kts | 158° |
| 2026-04-23 18:21 | 48.05882 | 2.52935 | 25320 ft | 381 kts | 159° |
| 2026-04-23 18:21 | 48.03354 | 2.54191 | 25744 ft | 383 kts | 159° |
| 2026-04-23 18:22 | 48.00816 | 2.55431 | 26154 ft | 385 kts | 159° |
| 2026-04-23 18:22 | 47.98264 | 2.56669 | 26588 ft | 386 kts | 159° |
| 2026-04-23 18:22 | 47.95700 | 2.57915 | 26994 ft | 388 kts | 159° |
| 2026-04-23 18:22 | 47.93133 | 2.59166 | 27384 ft | 390 kts | 159° |
| 2026-04-23 18:23 | 47.90544 | 2.60430 | 27778 ft | 391 kts | 159° |
| 2026-04-23 18:23 | 47.85352 | 2.62975 | 28543 ft | 395 kts | 159° |
| 2026-04-23 18:24 | 47.80107 | 2.65549 | 29262 ft | 398 kts | 159° |
| 2026-04-23 18:24 | 47.77468 | 2.66841 | 29614 ft | 400 kts | 159° |
| 2026-04-23 18:24 | 47.74815 | 2.68141 | 29908 ft | 404 kts | 159° |
| 2026-04-23 18:25 | 47.69446 | 2.70754 | 30464 ft | 409 kts | 160° |
| 2026-04-23 18:25 | 47.66732 | 2.72074 | 30694 ft | 411 kts | 160° |
| 2026-04-23 18:25 | 47.64004 | 2.73400 | 30912 ft | 414 kts | 160° |
| 2026-04-23 18:25 | 47.61254 | 2.74734 | 31128 ft | 417 kts | 160° |
| 2026-04-23 18:26 | 47.58490 | 2.76069 | 31323 ft | 420 kts | 160° |
| 2026-04-23 18:26 | 47.55705 | 2.77416 | 31527 ft | 423 kts | 160° |
| 2026-04-23 18:26 | 47.52889 | 2.78777 | 31663 ft | 427 kts | 160° |
| 2026-04-23 18:26 | 47.50052 | 2.80150 | 31852 ft | 430 kts | 160° |
| 2026-04-23 18:27 | 47.47202 | 2.81526 | 32100 ft | 432 kts | 160° |
| 2026-04-23 18:27 | 47.44342 | 2.82902 | 32359 ft | 433 kts | 161° |
| 2026-04-23 18:27 | 47.41475 | 2.84281 | 32618 ft | 434 kts | 161° |
| 2026-04-23 18:27 | 47.38602 | 2.85664 | 32877 ft | 435 kts | 161° |
| 2026-04-23 18:28 | 47.35719 | 2.87053 | 33144 ft | 436 kts | 161° |
| 2026-04-23 18:28 | 47.32822 | 2.88446 | 33337 ft | 440 kts | 161° |
| 2026-04-23 18:28 | 47.29894 | 2.89852 | 33471 ft | 445 kts | 161° |
| 2026-04-23 18:28 | 47.26947 | 2.91261 | 33821 ft | 443 kts | 161° |
| 2026-04-23 18:29 | 47.24033 | 2.92650 | 34274 ft | 439 kts | 161° |
| 2026-04-23 18:29 | 47.21131 | 2.94036 | 34577 ft | 438 kts | 161° |
| 2026-04-23 18:29 | 47.18233 | 2.95420 | 34830 ft | 438 kts | 161° |
| 2026-04-23 18:29 | 47.15341 | 2.96798 | 35082 ft | 438 kts | 161° |
| 2026-04-23 18:30 | 47.12437 | 2.98179 | 35186 ft | 439 kts | 161° |
| 2026-04-23 18:30 | 47.06610 | 3.00758 | 35198 ft | 436 kts | 163° |
| 2026-04-23 18:31 | 47.00794 | 3.03089 | 35198 ft | 436 kts | 164° |
| 2026-04-23 18:31 | 46.94943 | 3.05420 | 35189 ft | 436 kts | 164° |
| 2026-04-23 18:32 | 46.89064 | 3.07814 | 35187 ft | 444 kts | 164° |
| 2026-04-23 18:32 | 46.83094 | 3.10272 | 35190 ft | 446 kts | 164° |
| 2026-04-23 18:33 | 46.77111 | 3.12729 | 35201 ft | 447 kts | 164° |
| 2026-04-23 18:33 | 46.71126 | 3.15169 | 35201 ft | 447 kts | 164° |
| 2026-04-23 18:34 | 46.65141 | 3.17600 | 35194 ft | 447 kts | 164° |
| 2026-04-23 18:34 | 46.59145 | 3.20027 | 35195 ft | 447 kts | 165° |
| 2026-04-23 18:35 | 46.53162 | 3.22445 | 35200 ft | 447 kts | 165° |
| 2026-04-23 18:35 | 46.47182 | 3.24855 | 35206 ft | 446 kts | 164° |
| 2026-04-23 18:36 | 46.41209 | 3.27263 | 35192 ft | 445 kts | 164° |
| 2026-04-23 18:36 | 46.35238 | 3.29665 | 35198 ft | 445 kts | 164° |
| 2026-04-23 18:37 | 46.29277 | 3.32051 | 35175 ft | 445 kts | 165° |
| 2026-04-23 18:37 | 46.23285 | 3.34449 | 35167 ft | 447 kts | 165° |
| 2026-04-23 18:38 | 46.17280 | 3.36847 | 35169 ft | 449 kts | 165° |
| 2026-04-23 18:38 | 46.11256 | 3.39247 | 35153 ft | 450 kts | 165° |
| 2026-04-23 18:39 | 46.05161 | 3.41662 | 35194 ft | 460 kts | 166° |
| 2026-04-23 18:39 | 45.99014 | 3.44096 | 35192 ft | 462 kts | 166° |
| 2026-04-23 18:40 | 45.92808 | 3.46552 | 35190 ft | 463 kts | 166° |
| 2026-04-23 18:40 | 45.86640 | 3.49321 | 35181 ft | 469 kts | 156° |
| 2026-04-23 18:41 | 45.81029 | 3.54094 | 35181 ft | 470 kts | 146° |
| 2026-04-23 18:41 | 45.75567 | 3.59257 | 35177 ft | 470 kts | 147° |
| 2026-04-23 18:42 | 45.70097 | 3.64392 | 35155 ft | 471 kts | 147° |
| 2026-04-23 18:42 | 45.64602 | 3.69538 | 35168 ft | 473 kts | 147° |
| 2026-04-23 18:43 | 45.59084 | 3.74701 | 35167 ft | 475 kts | 147° |
| 2026-04-23 18:43 | 45.53552 | 3.79866 | 35168 ft | 476 kts | 147° |
| 2026-04-23 18:44 | 45.48000 | 3.85038 | 35167 ft | 477 kts | 147° |
| 2026-04-23 18:44 | 45.42445 | 3.90204 | 35194 ft | 477 kts | 147° |
| 2026-04-23 18:45 | 45.37054 | 3.95656 | 35201 ft | 475 kts | 136° |
| 2026-04-23 18:45 | 45.32804 | 4.02789 | 35206 ft | 473 kts | 124° |
| 2026-04-23 18:46 | 45.28958 | 4.10356 | 35187 ft | 473 kts | 124° |
| 2026-04-23 18:46 | 45.25077 | 4.17922 | 35190 ft | 474 kts | 124° |
| 2026-04-23 18:47 | 45.21183 | 4.25487 | 35215 ft | 474 kts | 124° |
| 2026-04-23 18:47 | 45.17256 | 4.32972 | 35232 ft | 472 kts | 125° |
| 2026-04-23 18:48 | 45.13307 | 4.40401 | 35235 ft | 471 kts | 125° |
| 2026-04-23 18:48 | 45.09370 | 4.47800 | 35217 ft | 470 kts | 125° |
| 2026-04-23 18:49 | 45.05467 | 4.55152 | 35202 ft | 471 kts | 125° |
| 2026-04-23 18:49 | 45.01525 | 4.62566 | 35220 ft | 471 kts | 125° |
| 2026-04-23 18:50 | 44.98226 | 4.68746 | 35233 ft | 469 kts | 126° |
| 2026-04-23 18:50 | 44.93661 | 4.77259 | 35220 ft | 467 kts | 126° |
| 2026-04-23 18:51 | 44.89744 | 4.84551 | 35214 ft | 466 kts | 126° |
| 2026-04-23 18:51 | 44.85826 | 4.91836 | 35177 ft | 467 kts | 125° |
| 2026-04-23 18:52 | 44.81896 | 4.99133 | 35206 ft | 467 kts | 126° |
| 2026-04-23 18:52 | 44.77969 | 5.06387 | 35225 ft | 465 kts | 126° |
| 2026-04-23 18:53 | 44.74060 | 5.13592 | 35228 ft | 463 kts | 126° |
| 2026-04-23 18:53 | 44.70157 | 5.20764 | 35238 ft | 462 kts | 126° |
| 2026-04-23 18:54 | 44.66252 | 5.27932 | 35242 ft | 461 kts | 126° |
| 2026-04-23 18:54 | 44.62355 | 5.35052 | 35263 ft | 460 kts | 126° |
| 2026-04-23 18:55 | 44.58507 | 5.42068 | 35236 ft | 449 kts | 126° |
| 2026-04-23 18:55 | 44.54705 | 5.48988 | 35207 ft | 447 kts | 126° |
| 2026-04-23 18:56 | 44.51554 | 5.54727 | 35230 ft | 447 kts | 126° |
| 2026-04-23 18:56 | 44.47116 | 5.62784 | 35209 ft | 448 kts | 126° |
| 2026-04-23 18:57 | 44.43274 | 5.69723 | 35221 ft | 452 kts | 126° |
| 2026-04-23 18:57 | 44.39430 | 5.76645 | 35255 ft | 449 kts | 127° |
| 2026-04-23 18:58 | 44.35616 | 5.83516 | 35246 ft | 446 kts | 127° |
| 2026-04-23 18:58 | 44.31819 | 5.90329 | 35241 ft | 443 kts | 127° |
| 2026-04-23 18:59 | 44.30462 | 5.92759 | 35237 ft | 443 kts | 127° |
| 2026-04-23 18:59 | 44.26740 | 5.99553 | 35232 ft | 442 kts | 127° |
| 2026-04-23 19:00 | 44.22955 | 6.06255 | 35196 ft | 444 kts | 127° |
| 2026-04-23 19:00 | 44.19107 | 6.13053 | 35230 ft | 443 kts | 127° |
| 2026-04-23 19:01 | 44.15334 | 6.19739 | 35243 ft | 441 kts | 127° |
| 2026-04-23 19:01 | 44.11535 | 6.26484 | 35245 ft | 439 kts | 127° |
| 2026-04-23 19:02 | 44.08405 | 6.32030 | 35241 ft | 438 kts | 127° |
| 2026-04-23 19:02 | 44.04036 | 6.39758 | 35234 ft | 437 kts | 127° |
| 2026-04-23 19:03 | 44.00273 | 6.46377 | 35211 ft | 438 kts | 127° |
| 2026-04-23 19:03 | 43.96497 | 6.52988 | 35238 ft | 436 kts | 127° |
| 2026-04-23 19:04 | 43.92735 | 6.59575 | 35230 ft | 434 kts | 127° |
| 2026-04-23 19:04 | 43.88988 | 6.66127 | 35229 ft | 433 kts | 127° |
| 2026-04-23 19:05 | 43.85245 | 6.72675 | 35221 ft | 433 kts | 127° |
| 2026-04-23 19:05 | 43.81500 | 6.79202 | 35204 ft | 433 kts | 127° |
| 2026-04-23 19:06 | 43.77740 | 6.85734 | 35195 ft | 434 kts | 127° |
| 2026-04-23 19:06 | 43.73977 | 6.92249 | 35205 ft | 433 kts | 127° |
| 2026-04-23 19:07 | 43.70463 | 6.97162 | 35214 ft | 434 kts | 141° |
| 2026-04-23 19:07 | 43.65643 | 7.02185 | 35197 ft | 434 kts | 142° |
| 2026-04-23 19:08 | 43.60821 | 7.07202 | 35206 ft | 434 kts | 142° |
| 2026-04-23 19:08 | 43.56002 | 7.12223 | 35183 ft | 435 kts | 142° |
| 2026-04-23 19:09 | 43.51174 | 7.17252 | 35185 ft | 436 kts | 142° |
| 2026-04-23 19:09 | 43.46325 | 7.22280 | 35188 ft | 436 kts | 142° |
| 2026-04-23 19:10 | 43.41464 | 7.27290 | 35192 ft | 437 kts | 142° |
| 2026-04-23 19:10 | 43.36597 | 7.32296 | 35187 ft | 438 kts | 142° |
| 2026-04-23 19:11 | 43.31719 | 7.37319 | 35178 ft | 439 kts | 142° |
| 2026-04-23 19:11 | 43.26826 | 7.42363 | 35180 ft | 440 kts | 142° |
| 2026-04-23 19:12 | 43.21962 | 7.47374 | 35186 ft | 440 kts | 142° |
| 2026-04-23 19:12 | 43.17052 | 7.52405 | 35189 ft | 441 kts | 142° |
| 2026-04-23 19:13 | 43.12105 | 7.57407 | 35178 ft | 443 kts | 145° |
| 2026-04-23 19:13 | 43.06568 | 7.61066 | 35200 ft | 444 kts | 159° |
| 2026-04-23 19:14 | 43.00764 | 7.63948 | 34951 ft | 443 kts | 159° |
| 2026-04-23 19:14 | 42.97877 | 7.65382 | 34708 ft | 440 kts | 159° |
| 2026-04-23 19:14 | 42.95009 | 7.66811 | 34311 ft | 437 kts | 159° |
| 2026-04-23 19:14 | 42.92161 | 7.68226 | 33713 ft | 435 kts | 159° |
| 2026-04-23 19:15 | 42.89329 | 7.69629 | 33190 ft | 430 kts | 159° |
| 2026-04-23 19:15 | 42.86527 | 7.71013 | 32654 ft | 427 kts | 159° |
| 2026-04-23 19:15 | 42.83740 | 7.72389 | 32119 ft | 424 kts | 159° |
| 2026-04-23 19:15 | 42.80979 | 7.73750 | 31599 ft | 421 kts | 159° |
| 2026-04-23 19:16 | 42.78233 | 7.75102 | 31083 ft | 418 kts | 158° |
| 2026-04-23 19:16 | 42.75512 | 7.76442 | 30580 ft | 415 kts | 158° |
| 2026-04-23 19:16 | 42.72804 | 7.77773 | 30039 ft | 412 kts | 158° |
| 2026-04-23 19:17 | 42.67477 | 7.80385 | 29061 ft | 402 kts | 158° |
| 2026-04-23 19:17 | 42.64863 | 7.81667 | 28606 ft | 397 kts | 158° |
| 2026-04-23 19:17 | 42.62276 | 7.82936 | 28148 ft | 393 kts | 158° |
| 2026-04-23 19:17 | 42.59717 | 7.84189 | 27702 ft | 389 kts | 158° |
| 2026-04-23 19:18 | 42.57184 | 7.85432 | 27258 ft | 386 kts | 158° |
| 2026-04-23 19:18 | 42.54670 | 7.86668 | 26823 ft | 382 kts | 158° |
| 2026-04-23 19:18 | 42.52182 | 7.87888 | 26385 ft | 379 kts | 158° |
| 2026-04-23 19:18 | 42.49713 | 7.89093 | 25958 ft | 376 kts | 158° |
| 2026-04-23 19:19 | 42.44818 | 7.91476 | 25063 ft | 371 kts | 158° |
| 2026-04-23 19:19 | 42.42386 | 7.92660 | 24591 ft | 370 kts | 158° |
| 2026-04-23 19:20 | 42.37557 | 7.95009 | 23641 ft | 368 kts | 158° |
| 2026-04-23 19:20 | 42.35150 | 7.96180 | 23125 ft | 366 kts | 158° |
| 2026-04-23 19:20 | 42.32781 | 7.97395 | 22678 ft | 362 kts | 152° |
| 2026-04-23 19:20 | 42.30616 | 7.99066 | 22220 ft | 356 kts | 141° |
| 2026-04-23 19:21 | 42.28728 | 8.01204 | 21781 ft | 352 kts | 135° |
| 2026-04-23 19:21 | 42.25137 | 8.05636 | 20918 ft | 348 kts | 135° |
| 2026-04-23 19:21 | 42.23344 | 8.07830 | 20489 ft | 347 kts | 135° |
| 2026-04-23 19:22 | 42.21579 | 8.09985 | 20058 ft | 346 kts | 135° |
| 2026-04-23 19:22 | 42.19777 | 8.12184 | 19639 ft | 345 kts | 135° |
| 2026-04-23 19:22 | 42.16252 | 8.16497 | 18798 ft | 344 kts | 135° |
| 2026-04-23 19:23 | 42.14484 | 8.18659 | 18380 ft | 343 kts | 135° |
| 2026-04-23 19:23 | 42.12720 | 8.20812 | 17935 ft | 342 kts | 135° |
| 2026-04-23 19:23 | 42.10962 | 8.22954 | 17532 ft | 339 kts | 136° |
| 2026-04-23 19:24 | 42.07475 | 8.27198 | 16724 ft | 336 kts | 135° |
| 2026-04-23 19:24 | 42.05751 | 8.29295 | 16331 ft | 334 kts | 135° |
| 2026-04-23 19:24 | 42.02319 | 8.33473 | 15545 ft | 331 kts | 135° |
| 2026-04-23 19:25 | 41.98911 | 8.37608 | 14764 ft | 329 kts | 134° |
| 2026-04-23 19:25 | 41.95256 | 8.41257 | 13994 ft | 332 kts | 153° |
| 2026-04-23 19:26 | 41.90701 | 8.42225 | 13127 ft | 337 kts | 181° |
| 2026-04-23 19:26 | 41.88369 | 8.42036 | 12696 ft | 336 kts | 181° |
| 2026-04-23 19:27 | 41.83722 | 8.41682 | 11827 ft | 333 kts | 181° |
| 2026-04-23 19:27 | 41.77023 | 8.41181 | 11080 ft | 313 kts | 181° |
| 2026-04-23 19:28 | 41.72723 | 8.40858 | 10221 ft | 305 kts | 181° |
| 2026-04-23 19:28 | 41.68528 | 8.40677 | 8857 ft | 296 kts | 169° |
| 2026-04-23 19:29 | 41.66601 | 8.41417 | 8370 ft | 282 kts | 151° |
| 2026-04-23 19:29 | 41.63844 | 8.44745 | 7234 ft | 270 kts | 117° |
| 2026-04-23 19:30 | 41.63106 | 8.49468 | 6027 ft | 259 kts | 80° |
| 2026-04-23 19:30 | 41.63625 | 8.51756 | 5515 ft | 258 kts | 62° |
| 2026-04-23 19:30 | 41.65642 | 8.55779 | 4674 ft | 254 kts | 54° |
| 2026-04-23 19:31 | 41.66628 | 8.57655 | 4566 ft | 240 kts | 54° |
| 2026-04-23 19:31 | 41.67561 | 8.59433 | 4464 ft | 227 kts | 54° |
| 2026-04-23 19:31 | 41.68440 | 8.61114 | 4369 ft | 216 kts | 54° |
| 2026-04-23 19:31 | 41.69297 | 8.62747 | 4280 ft | 215 kts | 54° |
| 2026-04-23 19:32 | 41.70152 | 8.64379 | 4186 ft | 213 kts | 54° |
| 2026-04-23 19:32 | 41.71000 | 8.65998 | 4092 ft | 212 kts | 54° |
| 2026-04-23 19:32 | 41.71982 | 8.67444 | 4012 ft | 209 kts | 33° |
| 2026-04-23 19:32 | 41.73282 | 8.68382 | 3854 ft | 211 kts | 26° |
| 2026-04-23 19:33 | 41.74569 | 8.69178 | 3604 ft | 196 kts | 25° |
| 2026-04-23 19:33 | 41.75809 | 8.69941 | 3364 ft | 191 kts | 25° |
| 2026-04-23 19:33 | 41.78196 | 8.71419 | 2865 ft | 190 kts | 26° |
| 2026-04-23 19:34 | 41.79381 | 8.72154 | 2641 ft | 182 kts | 25° |
| 2026-04-23 19:34 | 41.80495 | 8.72846 | 2369 ft | 170 kts | 25° |
| 2026-04-23 19:34 | 41.82483 | 8.74080 | 1945 ft | 147 kts | 24° |
| 2026-04-23 19:35 | 41.83399 | 8.74649 | 1747 ft | 144 kts | 24° |
| 2026-04-23 19:35 | 41.84298 | 8.75207 | 1556 ft | 142 kts | 24° |
| 2026-04-23 19:35 | 41.85186 | 8.75759 | 1377 ft | 141 kts | 25° |
| 2026-04-23 19:35 | 41.86076 | 8.76313 | 1183 ft | 141 kts | 25° |
| 2026-04-23 19:36 | 41.86962 | 8.76864 | 994 ft | 140 kts | 26° |
| 2026-04-23 19:36 | 41.87838 | 8.77408 | 805 ft | 138 kts | 26° |
| 2026-04-23 19:36 | 41.88698 | 8.77943 | 630 ft | 135 kts | 26° |
| 2026-04-23 19:36 | 41.89547 | 8.78472 | 446 ft | 134 kts | 26° |
| 2026-04-23 19:37 | 41.90390 | 8.78995 | 268 ft | 133 kts | 26° |
| 2026-04-23 19:37 | 41.91228 | 8.79522 | 81 ft | 133 kts | 26° |
| 2026-04-23 19:37 | 41.92013 | 8.80017 | 21 ft | 106 kts | 25° |
| 2026-04-23 19:37 | 41.92521 | 8.80333 | 22 ft | 56 kts | 24° |
| 2026-04-23 19:38 | 41.92724 | 8.80451 | 26 ft | 14 kts | 12° |
| 2026-04-23 19:38 | 41.92783 | 8.80382 | 28 ft | 11 kts | 294° |
| 2026-04-23 19:38 | 41.92802 | 8.80328 | 28 ft | 0 kts | 295° |
| 2026-04-23 19:38 | 41.92802 | 8.80327 | 28 ft | 0 kts | 295° |
| 2026-04-23 19:39 | 41.92803 | 8.80324 | 28 ft | 0 kts | 295° |
| 2026-04-23 19:39 | 41.92805 | 8.80318 | 28 ft | 1 kts | 295° |
| 2026-04-23 19:39 | 41.92809 | 8.80307 | 28 ft | 0 kts | 295° |
| 2026-04-23 19:40 | 41.92810 | 8.80304 | 28 ft | 1 kts | 295° |
| 2026-04-23 19:40 | 41.92819 | 8.80282 | 28 ft | 5 kts | 296° |
| 2026-04-23 19:40 | 41.92823 | 8.80226 | 27 ft | 7 kts | 248° |
| 2026-04-23 19:41 | 41.92785 | 8.80177 | 27 ft | 8 kts | 217° |
| 2026-04-23 19:41 | 41.92736 | 8.80133 | 28 ft | 9 kts | 213° |
| 2026-04-23 19:41 | 41.92671 | 8.80088 | 25 ft | 12 kts | 204° |
| 2026-04-23 19:41 | 41.92596 | 8.80044 | 26 ft | 12 kts | 205° |
| 2026-04-23 19:42 | 41.92515 | 8.79991 | 26 ft | 14 kts | 205° |
| 2026-04-23 19:42 | 41.92423 | 8.79934 | 29 ft | 16 kts | 204° |
| 2026-04-23 19:42 | 41.92332 | 8.79878 | 29 ft | 15 kts | 205° |
| 2026-04-23 19:42 | 41.92230 | 8.79814 | 28 ft | 17 kts | 204° |
| 2026-04-23 19:43 | 41.92131 | 8.79752 | 28 ft | 10 kts | 205° |
| 2026-04-23 19:43 | 41.92077 | 8.79720 | 29 ft | 4 kts | 205° |
| 2026-04-23 19:43 | 41.92054 | 8.79705 | 29 ft | 3 kts | 205° |
| 2026-04-23 19:43 | 41.92038 | 8.79695 | 26 ft | 3 kts | 205° |
| 2026-04-23 19:44 | 41.92012 | 8.79679 | 29 ft | 6 kts | 206° |
| 2026-04-23 19:44 | 41.91988 | 8.79644 | 26 ft | 4 kts | 278° |
| 2026-04-23 19:44 | 41.91995 | 8.79625 | 26 ft | 1 kts | 307° |
| 2026-04-23 19:44 | 41.92003 | 8.79618 | 26 ft | 1 kts | 325° |
| 2026-04-23 19:45 | 41.92008 | 8.79614 | 26 ft | 1 kts | 333° |
| 2026-04-23 19:45 | 41.92012 | 8.79612 | 26 ft | 1 kts | 337° |
| 2026-04-23 19:45 | 41.92013 | 8.79612 | 26 ft | 0 kts | 337° |